createdAt,value
2022-10-26T00:02:19.121Z,17.60
2022-10-26T00:04:46.544Z,17.50
2022-10-26T00:07:13.972Z,17.40
2022-10-26T00:09:41.390Z,17.60
2022-10-26T00:12:08.833Z,17.60
2022-10-26T00:14:36.344Z,17.60
2022-10-26T00:17:03.848Z,17.40
2022-10-26T00:19:33.333Z,17.30
2022-10-26T00:22:00.895Z,17.50
2022-10-26T00:24:28.262Z,17.60
2022-10-26T00:26:55.652Z,17.60
2022-10-26T00:29:23.164Z,17.50
2022-10-26T00:31:50.528Z,17.30
2022-10-26T00:34:17.933Z,17.20
2022-10-26T00:36:45.400Z,17.30
2022-10-26T00:39:13.438Z,17.40
2022-10-26T00:41:40.868Z,17.50
2022-10-26T00:44:27.334Z,17.50
2022-10-26T00:46:54.740Z,17.20
2022-10-26T00:49:22.183Z,17.10
2022-10-26T00:51:52.216Z,17.20
2022-10-26T00:54:20.391Z,17.40
2022-10-26T00:56:49.927Z,17.50
2022-10-26T00:59:17.767Z,17.50
2022-10-26T01:01:46.869Z,17.50
2022-10-26T01:04:15.019Z,17.40
2022-10-26T01:06:42.673Z,17.50
2022-10-26T01:09:10.350Z,17.20
2022-10-26T01:11:37.687Z,17.10
2022-10-26T01:14:06.876Z,17.10
2022-10-26T01:16:34.388Z,17.20
2022-10-26T01:19:08.227Z,17.20
2022-10-26T01:21:47.177Z,17.10
2022-10-26T01:24:20.739Z,16.90
2022-10-26T01:27:06.882Z,16.80
2022-10-26T01:29:52.792Z,16.80
2022-10-26T01:32:27.220Z,17.00
2022-10-26T01:35:02.486Z,16.90
2022-10-26T01:37:32.621Z,17.00
2022-10-26T01:40:02.871Z,16.80
2022-10-26T01:42:32.259Z,16.70
2022-10-26T01:45:04.999Z,16.40
2022-10-26T01:47:33.935Z,16.40
2022-10-26T01:50:02.474Z,16.40
2022-10-26T01:52:29.939Z,16.50
2022-10-26T01:55:01.079Z,16.50
2022-10-26T01:57:30.441Z,16.60
2022-10-26T02:00:08.303Z,16.40
2022-10-26T02:02:44.486Z,16.40
2022-10-26T02:05:24.384Z,16.40
2022-10-26T02:08:05.388Z,16.30
2022-10-26T02:10:46.588Z,16.50
2022-10-26T02:13:32.685Z,16.70
2022-10-26T02:16:06.637Z,16.70
2022-10-26T02:18:48.175Z,16.70
2022-10-26T02:21:17.614Z,16.60
2022-10-26T02:23:46.253Z,16.40
2022-10-26T02:26:15.695Z,16.30
2022-10-26T02:28:45.327Z,16.40
2022-10-26T02:31:14.208Z,16.50
2022-10-26T02:33:43.757Z,16.50
2022-10-26T02:36:12.880Z,16.50
2022-10-26T02:38:40.728Z,16.40
2022-10-26T02:41:08.832Z,16.40
2022-10-26T02:43:38.707Z,16.30
2022-10-26T02:46:08.903Z,16.20
2022-10-26T02:48:36.517Z,16.30
2022-10-26T02:51:09.807Z,16.40
2022-10-26T02:53:45.345Z,16.50
2022-10-26T02:56:22.207Z,16.50
2022-10-26T02:58:51.907Z,16.50
2022-10-26T03:01:19.487Z,16.30
2022-10-26T03:03:46.970Z,16.20
2022-10-26T03:06:21.100Z,16.00
2022-10-26T03:08:48.558Z,16.10
2022-10-26T03:11:16.194Z,16.20
2022-10-26T03:13:43.736Z,16.00
2022-10-26T03:16:11.579Z,16.10
2022-10-26T03:18:39.010Z,16.20
2022-10-26T03:21:06.500Z,16.20
2022-10-26T03:23:33.933Z,16.10
2022-10-26T03:26:01.419Z,16.00
2022-10-26T03:28:28.815Z,16.00
2022-10-26T03:30:56.333Z,16.00
2022-10-26T03:33:27.039Z,16.20
2022-10-26T03:35:56.969Z,16.30
2022-10-26T03:38:24.736Z,16.40
2022-10-26T03:40:52.242Z,16.40
2022-10-26T03:43:19.897Z,16.30
2022-10-26T03:45:47.553Z,16.20
2022-10-26T03:48:15.084Z,16.10
2022-10-26T03:50:42.452Z,16.20
2022-10-26T03:53:09.958Z,16.00
2022-10-26T03:55:37.494Z,16.10
2022-10-26T03:58:05.220Z,16.10
2022-10-26T04:00:32.568Z,16.10
2022-10-26T04:03:00.450Z,16.10
2022-10-26T04:05:28.843Z,16.00
2022-10-26T04:07:57.440Z,16.10
2022-10-26T04:10:25.672Z,16.20
2022-10-26T04:12:53.785Z,16.10
2022-10-26T04:15:21.604Z,16.10
2022-10-26T04:17:49.485Z,16.10
2022-10-26T04:20:17.171Z,16.00
2022-10-26T04:22:44.512Z,16.00
2022-10-26T04:25:13.714Z,16.00
2022-10-26T04:27:41.074Z,16.00
2022-10-26T04:30:10.072Z,15.90
2022-10-26T04:32:37.455Z,15.80
2022-10-26T04:35:05.086Z,15.70
2022-10-26T04:37:33.296Z,15.80
2022-10-26T04:40:00.796Z,15.80
2022-10-26T04:42:28.251Z,15.70
2022-10-26T04:44:55.750Z,15.70
2022-10-26T04:47:23.223Z,15.60
2022-10-26T04:49:50.677Z,15.60
2022-10-26T04:52:18.140Z,15.70
2022-10-26T04:54:45.554Z,15.70
2022-10-26T04:57:13.018Z,15.80
2022-10-26T04:59:40.477Z,15.80
2022-10-26T05:02:08.018Z,15.80
2022-10-26T05:04:35.489Z,15.90
2022-10-26T05:07:02.891Z,16.10
2022-10-26T05:09:30.326Z,16.00
2022-10-26T05:11:57.649Z,16.00
2022-10-26T05:14:25.099Z,15.90
2022-10-26T05:16:54.578Z,16.00
2022-10-26T05:19:22.356Z,16.00
2022-10-26T05:21:49.945Z,16.00
2022-10-26T05:24:17.345Z,15.70
2022-10-26T05:26:44.937Z,15.70
2022-10-26T05:29:12.302Z,15.70
2022-10-26T05:31:39.786Z,15.70
2022-10-26T05:34:07.389Z,15.80
2022-10-26T05:36:34.879Z,15.70
2022-10-26T05:39:02.751Z,15.70
2022-10-26T05:41:30.122Z,15.60
2022-10-26T05:43:57.651Z,15.50
2022-10-26T05:46:25.046Z,15.50
2022-10-26T05:48:52.496Z,15.40
2022-10-26T05:51:19.945Z,15.50
2022-10-26T05:53:47.380Z,15.60
2022-10-26T05:56:28.028Z,15.70
2022-10-26T05:58:55.590Z,15.70
2022-10-26T06:01:42.079Z,15.80
2022-10-26T06:04:28.698Z,15.90
2022-10-26T06:06:58.468Z,15.90
2022-10-26T06:09:27.821Z,16.00
2022-10-26T06:11:56.105Z,16.00
2022-10-26T06:14:23.619Z,15.90
2022-10-26T06:17:04.893Z,16.00
2022-10-26T06:19:40.965Z,16.10
2022-10-26T06:22:11.232Z,16.20
2022-10-26T06:24:51.007Z,16.20
2022-10-26T06:27:21.491Z,16.20
2022-10-26T06:29:53.703Z,16.20
2022-10-26T06:32:22.623Z,16.30
2022-10-26T06:34:51.042Z,16.20
2022-10-26T06:37:18.662Z,16.30
2022-10-26T06:39:49.968Z,16.40
2022-10-26T06:42:20.711Z,16.40
2022-10-26T06:44:48.416Z,16.30
2022-10-26T06:47:31.399Z,16.40
2022-10-26T06:50:08.396Z,16.50
2022-10-26T06:52:39.655Z,16.50
2022-10-26T06:55:12.536Z,16.50
2022-10-26T06:57:41.328Z,16.70
2022-10-26T07:00:09.389Z,16.80
2022-10-26T07:02:36.949Z,16.90
2022-10-26T07:05:04.889Z,17.00
2022-10-26T07:07:32.843Z,17.00
2022-10-26T07:10:00.278Z,16.80
2022-10-26T07:12:32.114Z,17.00
2022-10-26T07:15:00.964Z,17.20
2022-10-26T07:17:29.293Z,17.10
2022-10-26T07:19:57.005Z,17.20
2022-10-26T07:22:25.409Z,17.40
2022-10-26T07:24:53.336Z,17.40
2022-10-26T07:27:20.704Z,17.30
2022-10-26T07:29:48.323Z,17.30
2022-10-26T07:32:16.221Z,17.50
2022-10-26T07:34:44.145Z,17.60
2022-10-26T07:37:11.706Z,17.70
2022-10-26T07:39:39.343Z,17.60
2022-10-26T07:42:06.911Z,17.50
2022-10-26T07:44:34.385Z,17.60
2022-10-26T07:47:02.024Z,17.70
2022-10-26T07:49:29.432Z,17.80
2022-10-26T07:51:56.846Z,18.00
2022-10-26T07:54:24.397Z,17.90
2022-10-26T07:56:51.917Z,18.00
2022-10-26T07:59:19.580Z,18.20
2022-10-26T08:01:47.014Z,18.00
2022-10-26T08:04:14.977Z,18.10
2022-10-26T08:06:42.517Z,18.20
2022-10-26T08:09:09.920Z,18.30
2022-10-26T08:11:37.440Z,18.20
2022-10-26T08:14:05.456Z,18.20
2022-10-26T08:16:34.896Z,18.30
2022-10-26T08:19:02.264Z,18.30
2022-10-26T08:21:40.063Z,18.40
2022-10-26T08:24:08.248Z,18.50
2022-10-26T08:26:35.731Z,18.70
2022-10-26T08:29:03.078Z,18.70
2022-10-26T08:31:30.523Z,18.80
2022-10-26T08:33:57.917Z,18.80
2022-10-26T08:36:26.237Z,18.90
2022-10-26T08:38:53.863Z,18.90
2022-10-26T08:41:25.505Z,19.10
2022-10-26T08:43:57.078Z,19.20
2022-10-26T08:46:37.358Z,19.20
2022-10-26T08:49:20.405Z,19.20
2022-10-26T08:51:49.682Z,19.40
2022-10-26T08:54:27.703Z,19.50
2022-10-26T08:56:59.599Z,19.40
2022-10-26T08:59:34.702Z,19.40
2022-10-26T09:02:02.949Z,19.50
2022-10-26T09:04:32.096Z,19.60
2022-10-26T09:07:18.140Z,19.60
2022-10-26T09:09:48.304Z,19.70
2022-10-26T09:12:28.265Z,19.60
2022-10-26T09:15:18.066Z,19.60
2022-10-26T09:17:54.968Z,19.80
2022-10-26T09:20:34.607Z,20.00
2022-10-26T09:23:20.794Z,20.10
2022-10-26T09:25:51.591Z,20.20
2022-10-26T09:28:19.228Z,20.30
2022-10-26T09:30:47.733Z,20.40
2022-10-26T09:33:25.169Z,20.50
2022-10-26T09:35:59.414Z,20.40
2022-10-26T09:38:30.131Z,20.30
2022-10-26T09:40:57.524Z,20.50
2022-10-26T09:43:28.817Z,20.60
2022-10-26T09:45:56.271Z,20.60
2022-10-26T09:48:39.563Z,20.70
2022-10-26T09:51:07.184Z,20.70
2022-10-26T09:53:34.567Z,20.80
2022-10-26T09:56:07.506Z,21.00
2022-10-26T09:58:59.667Z,20.90
2022-10-26T10:01:36.693Z,21.10
2022-10-26T10:04:10.856Z,21.10
2022-10-26T10:06:38.644Z,21.20
2022-10-26T10:09:22.634Z,21.50
2022-10-26T10:11:57.994Z,21.50
2022-10-26T10:14:28.930Z,21.50
2022-10-26T10:16:56.387Z,21.50
2022-10-26T10:19:28.067Z,21.60
2022-10-26T10:21:57.054Z,21.70
2022-10-26T10:24:27.426Z,21.70
2022-10-26T10:27:05.466Z,21.80
2022-10-26T10:29:34.276Z,21.90
2022-10-26T10:32:03.079Z,21.80
2022-10-26T10:34:30.829Z,22.00
2022-10-26T10:36:59.504Z,22.10
2022-10-26T10:39:40.890Z,22.20
2022-10-26T10:42:17.010Z,22.30
2022-10-26T10:44:45.738Z,22.40
2022-10-26T10:47:19.112Z,22.50
2022-10-26T10:49:51.614Z,22.40
2022-10-26T10:52:32.942Z,22.40
2022-10-26T10:55:03.458Z,22.40
2022-10-26T10:57:33.894Z,22.50
2022-10-26T11:00:04.511Z,22.70
2022-10-26T11:02:35.128Z,22.70
2022-10-26T11:05:26.289Z,22.80
2022-10-26T11:07:58.251Z,23.00
2022-10-26T11:10:27.638Z,22.80
2022-10-26T11:12:59.927Z,22.90
2022-10-26T11:15:30.279Z,23.00
2022-10-26T11:18:05.429Z,23.00
2022-10-26T11:20:35.229Z,23.10
2022-10-26T11:23:10.604Z,23.00
2022-10-26T11:25:44.449Z,23.20
2022-10-26T11:28:23.451Z,23.50
2022-10-26T11:30:54.912Z,23.70
2022-10-26T11:33:25.466Z,23.80
2022-10-26T11:36:06.125Z,23.90
2022-10-26T11:38:57.720Z,24.00
2022-10-26T11:41:29.759Z,24.00
2022-10-26T11:44:12.196Z,23.90
2022-10-26T11:46:48.262Z,23.80
2022-10-26T11:49:28.040Z,24.00
2022-10-26T11:51:57.453Z,24.00
2022-10-26T11:54:24.862Z,24.00
2022-10-26T11:56:54.247Z,23.80
2022-10-26T11:59:26.875Z,23.80
2022-10-26T12:02:05.845Z,23.60
2022-10-26T12:04:35.034Z,23.50
2022-10-26T12:07:04.014Z,23.60
2022-10-26T12:09:35.572Z,23.90
2022-10-26T12:12:12.637Z,24.10
2022-10-26T12:14:47.088Z,24.30
2022-10-26T12:17:22.966Z,24.20
2022-10-26T12:19:50.362Z,24.30
2022-10-26T12:22:18.983Z,24.50
2022-10-26T12:24:47.359Z,24.80
2022-10-26T12:27:32.000Z,24.90
2022-10-26T12:30:14.834Z,24.80
2022-10-26T12:32:43.828Z,24.90
2022-10-26T12:35:11.511Z,25.00
2022-10-26T12:37:39.082Z,24.80
2022-10-26T12:40:25.210Z,24.70
2022-10-26T12:42:52.646Z,25.10
2022-10-26T12:45:21.207Z,25.00
2022-10-26T12:47:48.667Z,24.80
2022-10-26T12:50:25.550Z,24.80
2022-10-26T12:52:54.532Z,25.10
2022-10-26T12:55:22.167Z,24.80
2022-10-26T12:58:08.315Z,24.90
2022-10-26T13:00:39.169Z,24.90
2022-10-26T13:03:22.237Z,24.90
2022-10-26T13:05:49.614Z,25.10
2022-10-26T13:08:17.305Z,25.20
2022-10-26T13:11:00.599Z,25.20
2022-10-26T13:13:29.689Z,25.10
2022-10-26T13:15:57.610Z,25.00
2022-10-26T13:18:25.315Z,24.90
2022-10-26T13:20:54.339Z,25.00
2022-10-26T13:23:26.769Z,24.80
2022-10-26T13:26:05.017Z,24.70
2022-10-26T13:28:38.399Z,24.80
2022-10-26T13:31:10.585Z,25.10
2022-10-26T13:33:40.521Z,25.20
2022-10-26T13:36:27.246Z,25.20
2022-10-26T13:38:54.948Z,25.10
2022-10-26T13:41:42.581Z,25.20
2022-10-26T13:44:23.763Z,25.10
2022-10-26T13:47:15.429Z,25.00
2022-10-26T13:49:45.652Z,25.00
2022-10-26T13:52:17.940Z,24.80
2022-10-26T13:55:00.021Z,24.80
2022-10-26T13:57:36.043Z,24.60
2022-10-26T14:00:29.957Z,24.60
2022-10-26T14:02:57.371Z,24.70
2022-10-26T14:05:24.844Z,24.50
2022-10-26T14:07:55.889Z,24.40
2022-10-26T14:10:25.426Z,24.30
2022-10-26T14:12:53.874Z,24.30
2022-10-26T14:15:25.946Z,24.30
2022-10-26T14:17:54.406Z,24.30
2022-10-26T14:20:22.968Z,24.30
2022-10-26T14:22:50.703Z,24.20
2022-10-26T14:25:26.645Z,24.20
2022-10-26T14:28:05.043Z,24.10
2022-10-26T14:30:33.886Z,24.20
2022-10-26T14:33:01.491Z,24.20
2022-10-26T14:35:31.773Z,24.10
2022-10-26T14:38:07.139Z,24.00
2022-10-26T14:40:35.201Z,24.00
2022-10-26T14:43:04.779Z,23.90
2022-10-26T14:45:50.245Z,23.90
2022-10-26T14:48:21.384Z,23.80
2022-10-26T14:51:07.293Z,23.80
2022-10-26T14:53:36.995Z,23.80
2022-10-26T14:56:05.770Z,23.90
2022-10-26T14:58:34.136Z,23.90
2022-10-26T15:01:16.923Z,23.90
2022-10-26T15:03:44.591Z,23.80
2022-10-26T15:06:30.675Z,23.80
2022-10-26T15:08:59.743Z,23.70
2022-10-26T15:11:28.064Z,23.70
2022-10-26T15:13:56.291Z,23.70
2022-10-26T15:16:31.457Z,23.60
2022-10-26T15:19:00.981Z,23.60
2022-10-26T15:21:42.015Z,23.60
2022-10-26T15:24:38.470Z,23.60
2022-10-26T15:27:16.461Z,23.70
2022-10-26T15:29:45.574Z,23.70
2022-10-26T15:32:27.053Z,23.60
2022-10-26T15:35:13.281Z,23.50
2022-10-26T15:37:40.801Z,23.40
2022-10-26T15:40:08.357Z,23.20
2022-10-26T15:42:38.283Z,23.20
2022-10-26T15:45:14.371Z,23.10
2022-10-26T15:47:41.923Z,23.00
2022-10-26T15:50:12.815Z,23.00
2022-10-26T15:52:40.967Z,22.90
2022-10-26T15:55:10.373Z,23.00
2022-10-26T15:57:38.281Z,23.00
2022-10-26T16:00:06.860Z,22.90
2022-10-26T16:02:36.224Z,22.70
2022-10-26T16:05:03.753Z,22.70
2022-10-26T16:07:31.296Z,22.50
2022-10-26T16:09:58.932Z,22.50
2022-10-26T16:12:26.437Z,22.40
2022-10-26T16:15:05.213Z,22.30
2022-10-26T16:17:33.635Z,22.20
2022-10-26T16:20:06.609Z,22.00
2022-10-26T16:22:38.367Z,21.80
2022-10-26T16:25:06.556Z,21.70
2022-10-26T16:27:34.006Z,21.60
2022-10-26T16:30:01.449Z,21.60
2022-10-26T16:32:28.968Z,21.70
2022-10-26T16:34:56.366Z,21.50
2022-10-26T16:37:23.836Z,21.40
2022-10-26T16:39:51.278Z,21.30
2022-10-26T16:42:18.712Z,21.30
2022-10-26T16:44:46.226Z,21.20
2022-10-26T16:47:13.577Z,21.30
2022-10-26T16:49:43.424Z,21.20
2022-10-26T16:52:11.355Z,21.00
2022-10-26T16:54:38.935Z,20.90
2022-10-26T16:57:06.468Z,20.90
2022-10-26T16:59:33.957Z,20.80
2022-10-26T17:02:01.584Z,20.70
2022-10-26T17:04:29.192Z,20.80
2022-10-26T17:06:56.549Z,20.80
2022-10-26T17:09:24.010Z,20.70
2022-10-26T17:11:51.397Z,20.60
2022-10-26T17:14:18.758Z,20.60
2022-10-26T17:16:46.194Z,20.60
2022-10-26T17:19:13.789Z,20.70
2022-10-26T17:21:41.277Z,20.80
2022-10-26T17:24:08.717Z,20.70
2022-10-26T17:26:36.137Z,20.60
2022-10-26T17:29:03.877Z,20.60
2022-10-26T17:31:31.458Z,20.40
2022-10-26T17:33:59.265Z,20.30
2022-10-26T17:36:26.693Z,20.20
2022-10-26T17:38:54.855Z,20.00
2022-10-26T17:41:22.660Z,20.00
2022-10-26T17:43:50.305Z,20.00
2022-10-26T17:46:23.053Z,20.00
2022-10-26T17:48:57.379Z,20.10
2022-10-26T17:51:25.434Z,20.10
2022-10-26T17:53:53.267Z,20.20
2022-10-26T17:56:22.083Z,20.10
2022-10-26T17:58:56.710Z,20.10
2022-10-26T18:01:24.615Z,19.90
2022-10-26T18:03:52.403Z,19.80
2022-10-26T18:06:20.299Z,19.80
2022-10-26T18:08:47.659Z,19.80
2022-10-26T18:11:19.126Z,19.80
2022-10-26T18:13:49.037Z,19.90
2022-10-26T18:16:17.617Z,19.80
2022-10-26T18:18:46.566Z,19.90
2022-10-26T18:21:15.124Z,19.90
2022-10-26T18:23:43.203Z,19.80
2022-10-26T18:26:14.543Z,19.70
2022-10-26T18:28:42.433Z,19.80
2022-10-26T18:31:11.190Z,19.80
2022-10-26T18:33:39.057Z,19.80
2022-10-26T18:36:13.902Z,19.90
2022-10-26T18:38:41.383Z,19.80
2022-10-26T18:41:11.047Z,19.70
2022-10-26T18:43:42.300Z,19.60
2022-10-26T18:46:17.527Z,19.60
2022-10-26T18:48:48.094Z,19.50
2022-10-26T18:51:16.705Z,19.40
2022-10-26T18:53:44.732Z,19.50
2022-10-26T18:56:16.133Z,19.50
2022-10-26T18:58:44.384Z,19.40
2022-10-26T19:01:14.609Z,19.40
2022-10-26T19:03:42.623Z,19.30
2022-10-26T19:06:17.842Z,19.30
2022-10-26T19:08:45.692Z,19.40
2022-10-26T19:11:14.374Z,19.30
2022-10-26T19:13:42.063Z,19.30
2022-10-26T19:16:17.199Z,19.10
2022-10-26T19:18:58.201Z,19.10
2022-10-26T19:21:28.190Z,19.20
2022-10-26T19:23:57.159Z,19.00
2022-10-26T19:26:26.798Z,19.00
2022-10-26T19:28:57.681Z,18.70
2022-10-26T19:31:27.296Z,18.70
2022-10-26T19:33:56.621Z,18.70
2022-10-26T19:36:24.534Z,18.60
2022-10-26T19:38:51.962Z,18.70
2022-10-26T19:41:22.552Z,18.70
2022-10-26T19:43:50.132Z,18.70
2022-10-26T19:46:19.206Z,18.70
2022-10-26T19:48:50.465Z,18.60
2022-10-26T19:51:17.967Z,18.50
2022-10-26T19:53:45.637Z,18.50
2022-10-26T19:56:13.588Z,18.50
2022-10-26T19:58:41.993Z,18.40
2022-10-26T20:01:10.055Z,18.40
2022-10-26T20:03:37.901Z,18.40
2022-10-26T20:06:12.925Z,18.40
2022-10-26T20:08:41.181Z,18.30
2022-10-26T20:11:11.668Z,18.30
2022-10-26T20:13:42.879Z,18.40
2022-10-26T20:16:10.755Z,18.40
2022-10-26T20:18:39.993Z,18.40
2022-10-26T20:21:10.942Z,18.30
2022-10-26T20:23:38.480Z,18.40
2022-10-26T20:28:33.424Z,18.20
2022-10-26T20:31:01.027Z,18.20
2022-10-26T20:33:28.629Z,18.20
2022-10-26T20:35:57.107Z,18.20
2022-10-26T20:38:24.808Z,18.20
2022-10-26T20:40:59.195Z,18.20
2022-10-26T20:43:27.321Z,18.30
2022-10-26T20:45:56.290Z,18.30
2022-10-26T20:48:23.816Z,18.20
2022-10-26T20:51:00.609Z,18.10
2022-10-26T20:53:48.329Z,18.10
2022-10-26T20:56:21.352Z,18.10
2022-10-26T20:59:10.007Z,18.20
2022-10-26T21:01:38.684Z,18.20
2022-10-26T21:04:06.334Z,18.20
2022-10-26T21:06:40.292Z,18.10
2022-10-26T21:09:08.354Z,18.20
2022-10-26T21:11:35.829Z,18.10
2022-10-26T21:14:05.268Z,18.20
2022-10-26T21:16:32.845Z,18.20
2022-10-26T21:19:00.523Z,18.10
2022-10-26T21:21:27.952Z,18.10
2022-10-26T21:23:55.674Z,18.10
2022-10-26T21:26:23.083Z,18.00
2022-10-26T21:28:50.564Z,18.00
2022-10-26T21:31:18.701Z,18.00
2022-10-26T21:33:46.399Z,18.00
2022-10-26T21:36:14.518Z,18.00
2022-10-26T21:38:42.853Z,18.00
2022-10-26T21:41:15.159Z,18.00
2022-10-26T21:43:43.584Z,17.90
2022-10-26T21:46:11.285Z,18.00
2022-10-26T21:48:41.135Z,18.00
2022-10-26T21:51:11.425Z,18.00
2022-10-26T21:53:39.102Z,17.90
2022-10-26T21:56:11.438Z,17.90
2022-10-26T21:58:39.320Z,17.70
2022-10-26T22:01:07.887Z,17.60
2022-10-26T22:03:35.779Z,17.50
2022-10-26T22:06:03.761Z,17.50
2022-10-26T22:08:31.472Z,17.60
2022-10-26T22:10:59.130Z,17.60
2022-10-26T22:13:26.591Z,17.70
2022-10-26T22:16:01.108Z,17.70
2022-10-26T22:18:28.629Z,17.80
2022-10-26T22:20:57.053Z,17.70
2022-10-26T22:23:24.687Z,17.80
2022-10-26T22:25:52.153Z,17.70
2022-10-26T22:28:20.091Z,17.70
2022-10-26T22:30:47.728Z,17.80
2022-10-26T22:33:15.361Z,17.80
2022-10-26T22:35:43.350Z,17.70
2022-10-26T22:38:10.783Z,17.70
2022-10-26T22:40:38.378Z,17.60
2022-10-26T22:43:05.933Z,17.60
2022-10-26T22:45:33.485Z,17.60
2022-10-26T22:48:01.457Z,17.50
2022-10-26T22:50:28.906Z,17.40
2022-10-26T22:52:56.372Z,17.40
2022-10-26T22:55:23.932Z,17.40
2022-10-26T22:57:51.534Z,17.40
2022-10-26T23:00:19.422Z,17.30
2022-10-26T23:02:46.935Z,17.20
2022-10-26T23:05:14.425Z,17.10
2022-10-26T23:07:41.882Z,17.20
2022-10-26T23:10:09.565Z,17.00
2022-10-26T23:12:37.011Z,17.00
2022-10-26T23:15:04.556Z,17.00
2022-10-26T23:17:32.031Z,16.90
2022-10-26T23:19:59.395Z,17.00
2022-10-26T23:22:26.791Z,17.00
2022-10-26T23:24:54.220Z,17.00
2022-10-26T23:27:21.641Z,16.90
2022-10-26T23:29:49.058Z,17.10
2022-10-26T23:32:16.537Z,17.30
2022-10-26T23:34:43.989Z,17.20
2022-10-26T23:37:11.503Z,17.30
2022-10-26T23:39:38.999Z,17.10
2022-10-26T23:42:06.513Z,16.90
2022-10-26T23:44:33.950Z,16.70
2022-10-26T23:47:01.447Z,16.70
2022-10-26T23:49:28.875Z,16.80
2022-10-26T23:51:56.302Z,16.70
2022-10-26T23:54:23.739Z,16.70
2022-10-26T23:56:51.103Z,16.60
2022-10-26T23:59:19.716Z,16.70
